Time;durP1;ratioP1;P1;durP2;ratioP2;P2;SDS_P1;SDS_P2;PMS_P1;PMS_P2;Temp;Humidity;BMP_temperature;BMP_pressure;BME280_temperature;BME280_humidity;BME280_pressure;Samples;Min_cycle;Max_cycle;Signal;HPM_P1;HPM_P2
2024/03/30 00:01:13;;;;;;;;;;;23.60;39.80;;;;;;5074367;28;19932;-57
2024/03/30 00:03:39;;;;;;;;;;;23.60;39.80;;;;;;5074323;28;19982;-57
2024/03/30 00:06:05;;;;;;;;;;;23.60;39.80;;;;;;5074329;28;19924;-57
2024/03/30 00:08:31;;;;;;;;;;;23.60;39.80;;;;;;5074126;28;19928;-57
2024/03/30 00:10:59;;;;;;;;;;;23.50;39.80;;;;;;5074035;28;19975;-58
2024/03/30 00:13:25;;;;;;;;;;;23.60;39.90;;;;;;5074003;28;19924;-58
2024/03/30 00:15:50;;;;;;;;;;;23.50;39.80;;;;;;5073828;28;19932;-57
2024/03/30 00:18:16;;;;;;;;;;;23.50;39.90;;;;;;5073807;28;19935;-57
2024/03/30 00:20:42;;;;;;;;;;;23.50;39.90;;;;;;5073889;28;19932;-57
2024/03/30 00:23:08;;;;;;;;;;;23.50;39.90;;;;;;5073661;28;19932;-57
2024/03/30 00:25:34;;;;;;;;;;;23.50;39.90;;;;;;5074015;28;19925;-57
2024/03/30 00:27:59;;;;;;;;;;;23.50;39.80;;;;;;5073611;28;20377;-57
2024/03/30 00:30:26;;;;;;;;;;;23.50;39.80;;;;;;5073654;28;19924;-57
2024/03/30 00:32:52;;;;;;;;;;;23.50;39.80;;;;;;5056941;28;20511;-58
2024/03/30 00:35:17;;;;;;;;;;;23.50;39.80;;;;;;5073950;28;19998;-57
2024/03/30 00:37:43;;;;;;;;;;;23.50;39.80;;;;;;5072557;28;20289;-57
2024/03/30 00:40:09;;;;;;;;;;;23.50;39.80;;;;;;5073158;28;19925;-57
2024/03/30 00:42:35;;;;;;;;;;;23.50;39.80;;;;;;5056790;28;20019;-57
2024/03/30 00:45:02;;;;;;;;;;;23.50;39.80;;;;;;5073308;28;19924;-57
2024/03/30 00:47:28;;;;;;;;;;;23.50;39.80;;;;;;5073197;28;19932;-57
2024/03/30 00:49:54;;;;;;;;;;;23.50;39.80;;;;;;5073247;28;19924;-57
2024/03/30 00:52:19;;;;;;;;;;;23.50;39.80;;;;;;5073002;28;19940;-57
2024/03/30 00:54:45;;;;;;;;;;;23.50;39.80;;;;;;5073186;28;19931;-57
2024/03/30 00:57:11;;;;;;;;;;;23.50;39.80;;;;;;5073210;28;19928;-58
2024/03/30 00:59:38;;;;;;;;;;;23.50;39.70;;;;;;5072714;28;19974;-58
2024/03/30 01:02:03;;;;;;;;;;;23.60;39.80;;;;;;5056243;28;19928;-57
2024/03/30 01:04:30;;;;;;;;;;;23.50;39.70;;;;;;5073359;28;19924;-57
2024/03/30 01:06:58;;;;;;;;;;;23.50;39.80;;;;;;5073053;28;19932;-58
2024/03/30 01:09:25;;;;;;;;;;;23.50;39.80;;;;;;5073077;28;20317;-57
2024/03/30 01:11:51;;;;;;;;;;;23.50;39.80;;;;;;5072880;28;19924;-56
2024/03/30 01:14:18;;;;;;;;;;;23.50;39.80;;;;;;5072668;28;19929;-57
2024/03/30 01:16:45;;;;;;;;;;;23.50;39.80;;;;;;5072668;28;19974;-57
2024/03/30 01:19:11;;;;;;;;;;;23.50;39.90;;;;;;5072688;28;19932;-57
2024/03/30 01:21:37;;;;;;;;;;;23.50;39.90;;;;;;5072306;28;19928;-57
2024/03/30 01:24:03;;;;;;;;;;;23.50;40.50;;;;;;5072332;28;19928;-58
2024/03/30 01:26:29;;;;;;;;;;;23.50;39.90;;;;;;5072811;28;20023;-57
2024/03/30 01:28:57;;;;;;;;;;;23.50;40.00;;;;;;5072703;28;19924;-57
2024/03/30 01:31:23;;;;;;;;;;;23.50;40.00;;;;;;5072650;28;20270;-57
2024/03/30 01:33:49;;;;;;;;;;;23.40;39.90;;;;;;5072344;28;19970;-57
2024/03/30 01:36:15;;;;;;;;;;;23.50;40.00;;;;;;5072184;28;19928;-57
2024/03/30 01:38:41;;;;;;;;;;;23.40;39.90;;;;;;5072680;28;19931;-57
2024/03/30 01:41:09;;;;;;;;;;;23.50;40.00;;;;;;5072280;28;19924;-57
2024/03/30 01:43:34;;;;;;;;;;;23.50;40.50;;;;;;5072433;28;19978;-57
2024/03/30 01:46:00;;;;;;;;;;;23.50;40.00;;;;;;5055740;28;19928;-57
2024/03/30 01:48:26;;;;;;;;;;;23.50;39.90;;;;;;5071783;28;20373;-57
2024/03/30 01:50:52;;;;;;;;;;;23.50;39.90;;;;;;5072371;28;19976;-57
2024/03/30 01:53:19;;;;;;;;;;;23.50;39.90;;;;;;5072497;28;19931;-57
2024/03/30 01:55:48;;;;;;;;;;;23.50;39.90;;;;;;5072289;28;19932;-57
2024/03/30 01:58:17;;;;;;;;;;;23.50;39.90;;;;;;5072282;28;20045;-57
2024/03/30 02:00:43;;;;;;;;;;;23.50;39.90;;;;;;5072023;28;19924;-57
2024/03/30 02:03:09;;;;;;;;;;;23.50;39.90;;;;;;5054085;28;19932;-56
2024/03/30 02:05:35;;;;;;;;;;;23.50;39.90;;;;;;5052237;28;20333;-57
2024/03/30 02:08:02;;;;;;;;;;;23.50;39.90;;;;;;5052193;28;20401;-57
2024/03/30 02:10:28;;;;;;;;;;;23.50;39.90;;;;;;5052140;28;19928;-57
2024/03/30 02:12:54;;;;;;;;;;;23.50;39.90;;;;;;5051806;28;20436;-57
2024/03/30 02:15:20;;;;;;;;;;;23.50;39.90;;;;;;5051903;28;19925;-57
2024/03/30 02:17:46;;;;;;;;;;;23.50;39.90;;;;;;5051605;28;20363;-57
2024/03/30 02:20:12;;;;;;;;;;;23.50;39.90;;;;;;5053724;28;19928;-57
2024/03/30 02:22:38;;;;;;;;;;;23.40;39.90;;;;;;5071891;28;19925;-57
2024/03/30 02:25:04;;;;;;;;;;;23.40;39.90;;;;;;5072151;28;20382;-57
2024/03/30 02:27:34;;;;;;;;;;;23.40;40.00;;;;;;5071772;28;19948;-57
2024/03/30 02:30:01;;;;;;;;;;;23.40;40.00;;;;;;5071995;28;19925;-57
2024/03/30 02:32:28;;;;;;;;;;;23.40;40.00;;;;;;5071539;28;20387;-57
2024/03/30 02:34:54;;;;;;;;;;;23.40;40.00;;;;;;5072127;28;19925;-57
2024/03/30 02:37:20;;;;;;;;;;;23.40;40.00;;;;;;5071681;28;20396;-57
2024/03/30 02:39:45;;;;;;;;;;;23.40;40.00;;;;;;5071447;28;19924;-57
2024/03/30 02:42:11;;;;;;;;;;;23.40;40.10;;;;;;5071710;28;19935;-58
2024/03/30 02:44:37;;;;;;;;;;;23.40;40.10;;;;;;5071964;28;19947;-56
2024/03/30 02:47:03;;;;;;;;;;;23.40;40.10;;;;;;5071886;28;20270;-57
2024/03/30 02:49:29;;;;;;;;;;;23.40;40.10;;;;;;5071923;28;19928;-57
2024/03/30 02:51:55;;;;;;;;;;;23.40;40.10;;;;;;5071666;28;20332;-57
2024/03/30 02:54:21;;;;;;;;;;;23.40;40.10;;;;;;5071567;28;19924;-57
2024/03/30 02:56:47;;;;;;;;;;;23.40;40.10;;;;;;5071504;28;19924;-57
2024/03/30 02:59:13;;;;;;;;;;;23.40;40.10;;;;;;5071284;28;19939;-57
2024/03/30 03:01:38;;;;;;;;;;;23.40;40.10;;;;;;5073258;28;19974;-56
2024/03/30 03:04:04;;;;;;;;;;;23.40;40.00;;;;;;5075157;28;19928;-57
2024/03/30 03:06:30;;;;;;;;;;;23.40;40.00;;;;;;5058548;28;19971;-57
2024/03/30 03:08:56;;;;;;;;;;;23.40;40.00;;;;;;5058613;28;19954;-57
2024/03/30 03:11:22;;;;;;;;;;;23.40;40.00;;;;;;5075013;28;19935;-57
2024/03/30 03:13:48;;;;;;;;;;;23.40;40.00;;;;;;5074983;28;19932;-57
2024/03/30 03:16:13;;;;;;;;;;;23.40;40.00;;;;;;5075278;28;19924;-57
2024/03/30 03:18:40;;;;;;;;;;;23.40;40.10;;;;;;5075202;28;19929;-57
2024/03/30 03:21:06;;;;;;;;;;;23.40;40.00;;;;;;5075045;28;19948;-56
2024/03/30 03:23:32;;;;;;;;;;;23.40;40.00;;;;;;5075268;28;20365;-57
2024/03/30 03:25:58;;;;;;;;;;;23.40;40.00;;;;;;5074750;28;19935;-57
2024/03/30 03:28:26;;;;;;;;;;;23.40;40.00;;;;;;5074229;28;21379;-57
2024/03/30 03:30:52;;;;;;;;;;;23.40;40.00;;;;;;5075049;28;19975;-57
2024/03/30 03:33:18;;;;;;;;;;;23.40;40.10;;;;;;5074780;28;20301;-57
2024/03/30 03:35:44;;;;;;;;;;;23.40;40.10;;;;;;5074568;28;19946;-57
2024/03/30 03:38:09;;;;;;;;;;;23.40;40.10;;;;;;5075273;28;20017;-57
2024/03/30 03:40:35;;;;;;;;;;;23.40;40.10;;;;;;5074630;28;19925;-57
2024/03/30 03:43:01;;;;;;;;;;;23.30;40.00;;;;;;5074351;28;19936;-57
2024/03/30 03:45:27;;;;;;;;;;;23.40;40.10;;;;;;5074554;28;19924;-57
2024/03/30 03:47:53;;;;;;;;;;;23.30;40.10;;;;;;5074705;28;19924;-57
2024/03/30 03:50:19;;;;;;;;;;;23.30;40.10;;;;;;5074691;28;19928;-57
2024/03/30 03:52:44;;;;;;;;;;;23.30;40.10;;;;;;5074529;28;19991;-57
2024/03/30 03:55:10;;;;;;;;;;;23.30;40.20;;;;;;5074487;28;19924;-57
2024/03/30 03:57:36;;;;;;;;;;;23.30;40.20;;;;;;5057895;28;20019;-57
2024/03/30 04:00:03;;;;;;;;;;;23.30;40.20;;;;;;5073788;28;19978;-57
2024/03/30 04:02:29;;;;;;;;;;;23.30;40.20;;;;;;5074339;28;19928;-57
2024/03/30 04:04:55;;;;;;;;;;;23.30;40.80;;;;;;5073969;28;20061;-57
2024/03/30 04:07:21;;;;;;;;;;;23.30;40.20;;;;;;5074075;28;19932;-57
2024/03/30 04:09:50;;;;;;;;;;;23.30;40.80;;;;;;5074095;28;19924;-57
2024/03/30 04:12:16;;;;;;;;;;;23.30;40.20;;;;;;5057318;28;19925;-57
2024/03/30 04:14:41;;;;;;;;;;;23.30;40.20;;;;;;5073395;28;20380;-56
2024/03/30 04:17:07;;;;;;;;;;;23.30;40.20;;;;;;5074219;28;19925;-57
2024/03/30 04:19:33;;;;;;;;;;;23.30;40.20;;;;;;5073987;28;19969;-57
2024/03/30 04:22:02;;;;;;;;;;;23.30;40.20;;;;;;5073529;28;19970;-57
2024/03/30 04:24:27;;;;;;;;;;;23.30;40.20;;;;;;5073664;28;19931;-59
2024/03/30 04:26:53;;;;;;;;;;;23.30;40.20;;;;;;5073737;28;19928;-57
2024/03/30 04:29:19;;;;;;;;;;;23.30;40.20;;;;;;5074019;28;20007;-57
2024/03/30 04:31:45;;;;;;;;;;;23.30;40.30;;;;;;5073762;28;20384;-57
2024/03/30 04:34:11;;;;;;;;;;;23.30;40.20;;;;;;5073568;28;19924;-57
2024/03/30 04:36:37;;;;;;;;;;;23.30;40.20;;;;;;5073521;28;19924;-57
2024/03/30 04:39:04;;;;;;;;;;;23.30;40.10;;;;;;5073435;28;19946;-57
2024/03/30 04:41:30;;;;;;;;;;;23.30;40.00;;;;;;5073247;28;19924;-59
2024/03/30 04:43:56;;;;;;;;;;;23.30;40.50;;;;;;5073248;28;19969;-57
2024/03/30 04:46:22;;;;;;;;;;;23.30;39.80;;;;;;5073200;28;19928;-57
2024/03/30 04:48:47;;;;;;;;;;;23.40;39.80;;;;;;5073335;28;19995;-57
2024/03/30 04:51:13;;;;;;;;;;;23.30;39.70;;;;;;5073212;28;19924;-57
2024/03/30 04:53:39;;;;;;;;;;;23.30;39.60;;;;;;5073423;28;19936;-57
2024/03/30 04:56:10;;;;;;;;;;;23.30;39.50;;;;;;5073273;28;19929;-57
2024/03/30 04:58:36;;;;;;;;;;;23.40;39.50;;;;;;5073473;28;19924;-57
2024/03/30 05:01:09;;;;;;;;;;;23.40;39.50;;;;;;5072835;28;20023;-57
2024/03/30 05:03:35;;;;;;;;;;;23.40;39.50;;;;;;5072857;28;19931;-57
2024/03/30 05:06:02;;;;;;;;;;;23.40;39.50;;;;;;5056410;28;20297;-57
2024/03/30 05:08:28;;;;;;;;;;;23.40;39.50;;;;;;5073295;28;19948;-56
2024/03/30 05:10:54;;;;;;;;;;;23.40;39.40;;;;;;5073192;28;19925;-57
2024/03/30 05:13:20;;;;;;;;;;;23.40;39.40;;;;;;5073222;28;19950;-57
2024/03/30 05:15:46;;;;;;;;;;;23.40;39.30;;;;;;5072635;28;19925;-57
2024/03/30 05:18:12;;;;;;;;;;;23.40;39.20;;;;;;5072611;28;19978;-57
2024/03/30 05:20:49;;;;;;;;;;;23.40;39.20;;;;;;5072739;28;19924;-57
2024/03/30 05:23:26;;;;;;;;;;;23.50;39.20;;;;;;5071984;28;19924;-57
2024/03/30 05:25:52;;;;;;;;;;;23.50;39.70;;;;;;5072422;28;19936;-62
2024/03/30 05:28:19;;;;;;;;;;;23.50;39.10;;;;;;5072948;28;20006;-58
2024/03/30 05:30:49;;;;;;;;;;;23.50;39.10;;;;;;5072730;28;19931;-58
2024/03/30 05:33:15;;;;;;;;;;;23.50;39.00;;;;;;5072586;28;19932;-65
2024/03/30 05:35:41;;;;;;;;;;;23.60;39.00;;;;;;5072267;28;19928;-60
2024/03/30 05:38:07;;;;;;;;;;;23.60;39.00;;;;;;5072557;28;19924;-57
2024/03/30 05:40:34;;;;;;;;;;;23.60;38.90;;;;;;5072330;28;19931;-63
2024/03/30 05:43:01;;;;;;;;;;;23.60;38.80;;;;;;5072369;28;20339;-62
2024/03/30 05:45:27;;;;;;;;;;;23.70;38.90;;;;;;5072777;28;19925;-57
2024/03/30 05:47:53;;;;;;;;;;;23.70;38.90;;;;;;5072031;28;19931;-57
2024/03/30 05:50:20;;;;;;;;;;;23.70;39.30;;;;;;5072201;28;19933;-58
2024/03/30 05:52:46;;;;;;;;;;;23.70;38.80;;;;;;5072485;28;19925;-57
2024/03/30 05:55:11;;;;;;;;;;;23.70;38.70;;;;;;5072540;28;19935;-57
2024/03/30 05:57:37;;;;;;;;;;;23.80;38.70;;;;;;5072179;28;20362;-57
2024/03/30 06:00:04;;;;;;;;;;;23.80;38.70;;;;;;5055155;28;19980;-58
2024/03/30 06:02:31;;;;;;;;;;;23.90;38.60;;;;;;5072157;28;19932;-57
2024/03/30 06:04:57;;;;;;;;;;;23.90;38.60;;;;;;5072036;28;19924;-57
2024/03/30 06:07:23;;;;;;;;;;;23.90;38.50;;;;;;5072215;28;20007;-57
2024/03/30 06:09:49;;;;;;;;;;;23.90;38.50;;;;;;5055261;28;20476;-57
2024/03/30 06:12:15;;;;;;;;;;;23.90;38.50;;;;;;5072065;28;19924;-57
2024/03/30 06:14:44;;;;;;;;;;;24.00;38.50;;;;;;5072210;28;19946;-57
2024/03/30 06:17:10;;;;;;;;;;;24.00;38.50;;;;;;5055143;28;19970;-57
2024/03/30 06:19:36;;;;;;;;;;;24.00;38.50;;;;;;5072065;28;19925;-57
2024/03/30 06:22:02;;;;;;;;;;;24.00;38.40;;;;;;5071863;28;20385;-58
2024/03/30 06:24:28;;;;;;;;;;;24.00;39.00;;;;;;5059091;28;20324;-57
2024/03/30 06:26:53;;;;;;;;;;;24.10;38.40;;;;;;5051882;28;19924;-57
2024/03/30 06:29:19;;;;;;;;;;;24.10;38.40;;;;;;5052071;28;20255;-57
2024/03/30 06:31:45;;;;;;;;;;;24.10;38.40;;;;;;5051612;28;20015;-57
2024/03/30 06:34:12;;;;;;;;;;;24.10;38.40;;;;;;5051967;28;19925;-58
2024/03/30 06:36:38;;;;;;;;;;;24.10;38.40;;;;;;5055334;28;19929;-57
2024/03/30 06:39:03;;;;;;;;;;;24.10;38.40;;;;;;5056144;28;19929;-57
2024/03/30 06:44:15;;;;;;;;;;;24.10;38.30;;;;;;5055889;28;19932;-58
2024/03/30 06:46:42;;;;;;;;;;;24.20;38.30;;;;;;5055961;28;20317;-58
2024/03/30 06:49:07;;;;;;;;;;;24.30;38.20;;;;;;5055571;28;19932;-57
2024/03/30 06:51:33;;;;;;;;;;;24.30;38.00;;;;;;5055520;28;19924;-57
2024/03/30 06:53:59;;;;;;;;;;;24.40;38.00;;;;;;5055797;28;20008;-57
2024/03/30 06:56:25;;;;;;;;;;;24.50;37.90;;;;;;5069414;28;19947;-58
2024/03/30 06:58:51;;;;;;;;;;;24.50;37.80;;;;;;5075481;28;19924;-57
2024/03/30 07:01:17;;;;;;;;;;;24.50;37.70;;;;;;5075262;28;19998;-57
2024/03/30 07:03:43;;;;;;;;;;;24.60;37.70;;;;;;5069230;28;19925;-57
2024/03/30 07:06:10;;;;;;;;;;;24.60;37.70;;;;;;5071923;28;20262;-57
2024/03/30 07:08:37;;;;;;;;;;;24.70;37.70;;;;;;5074525;28;19925;-57
2024/03/30 07:11:03;;;;;;;;;;;24.70;37.60;;;;;;5073038;28;19940;-57
2024/03/30 07:13:29;;;;;;;;;;;24.70;37.50;;;;;;5070098;28;19925;-57
2024/03/30 07:15:55;;;;;;;;;;;24.70;37.50;;;;;;5075223;28;19954;-57
2024/03/30 07:18:22;;;;;;;;;;;24.80;37.50;;;;;;5075010;28;19963;-57
2024/03/30 07:20:48;;;;;;;;;;;24.80;37.50;;;;;;5068065;28;19924;-57
2024/03/30 07:23:14;;;;;;;;;;;24.80;37.50;;;;;;5070223;28;19924;-57
2024/03/30 07:25:40;;;;;;;;;;;24.80;37.40;;;;;;5055071;28;19974;-57
2024/03/30 07:28:05;;;;;;;;;;;24.90;37.50;;;;;;5069334;28;20381;-57
2024/03/30 07:30:32;;;;;;;;;;;24.90;37.30;;;;;;5073298;28;19930;-57
2024/03/30 07:32:58;;;;;;;;;;;24.90;37.30;;;;;;5073713;28;19978;-58
2024/03/30 07:35:24;;;;;;;;;;;24.90;37.20;;;;;;5062650;28;19924;-57
2024/03/30 07:37:50;;;;;;;;;;;25.00;37.20;;;;;;5070388;28;19929;-57
2024/03/30 07:40:15;;;;;;;;;;;25.00;37.10;;;;;;5062973;28;19932;-57
2024/03/30 07:42:41;;;;;;;;;;;25.00;37.10;;;;;;5071797;28;19946;-57
2024/03/30 07:45:07;;;;;;;;;;;25.00;37.10;;;;;;5074709;28;20290;-57
2024/03/30 07:47:33;;;;;;;;;;;25.00;37.00;;;;;;5071447;28;20559;-58
2024/03/30 07:49:59;;;;;;;;;;;25.10;37.00;;;;;;5057950;28;19964;-57
2024/03/30 07:52:25;;;;;;;;;;;25.10;36.90;;;;;;5067875;28;19963;-58
2024/03/30 07:54:51;;;;;;;;;;;25.10;36.90;;;;;;5070417;28;19987;-57
2024/03/30 07:57:17;;;;;;;;;;;25.10;36.80;;;;;;5062651;28;19925;-58
2024/03/30 07:59:42;;;;;;;;;;;25.20;36.80;;;;;;5054182;28;19928;-57
2024/03/30 08:02:08;;;;;;;;;;;25.20;36.70;;;;;;5063499;28;19924;-57
2024/03/30 08:04:34;;;;;;;;;;;25.30;36.70;;;;;;5074132;28;20297;-58
2024/03/30 08:07:00;;;;;;;;;;;25.30;36.70;;;;;;5066515;28;19925;-58
2024/03/30 08:09:26;;;;;;;;;;;25.30;36.60;;;;;;5063928;28;19931;-57
2024/03/30 08:11:52;;;;;;;;;;;25.30;36.50;;;;;;5062450;28;19982;-57
2024/03/30 08:14:19;;;;;;;;;;;25.30;36.50;;;;;;5067196;28;19978;-57
2024/03/30 08:16:45;;;;;;;;;;;25.40;36.50;;;;;;5072670;28;19929;-57
2024/03/30 08:19:11;;;;;;;;;;;25.40;36.50;;;;;;5058597;28;19931;-57
2024/03/30 08:21:37;;;;;;;;;;;25.40;36.40;;;;;;5059920;28;19924;-57
2024/03/30 08:24:03;;;;;;;;;;;25.40;36.40;;;;;;5053276;28;19925;-58
2024/03/30 08:26:29;;;;;;;;;;;25.40;36.30;;;;;;5068773;28;19924;-57
2024/03/30 08:29:01;;;;;;;;;;;25.50;36.30;;;;;;5069870;28;20011;-57
2024/03/30 08:31:28;;;;;;;;;;;25.50;36.30;;;;;;5072927;28;19924;-58
2024/03/30 08:33:55;;;;;;;;;;;25.50;36.20;;;;;;5072252;28;19931;-57
2024/03/30 08:36:22;;;;;;;;;;;25.60;36.30;;;;;;5072199;28;19924;-57
2024/03/30 08:38:48;;;;;;;;;;;25.60;36.20;;;;;;5056523;28;19924;-58
2024/03/30 08:41:14;;;;;;;;;;;25.60;36.20;;;;;;5073056;28;19995;-57
2024/03/30 08:43:39;;;;;;;;;;;25.60;36.10;;;;;;5073583;28;19928;-58
2024/03/30 08:46:06;;;;;;;;;;;25.60;36.10;;;;;;5072491;28;19970;-57
2024/03/30 08:48:32;;;;;;;;;;;25.60;36.10;;;;;;5073702;28;19932;-58
2024/03/30 08:50:58;;;;;;;;;;;25.60;36.10;;;;;;5070782;28;19929;-57
2024/03/30 08:53:23;;;;;;;;;;;25.60;36.10;;;;;;5063635;28;20366;-57
2024/03/30 08:55:56;;;;;;;;;;;25.60;36.10;;;;;;5062617;28;19925;-57
2024/03/30 08:58:22;;;;;;;;;;;25.60;36.10;;;;;;5070971;28;19928;-57
2024/03/30 09:00:48;;;;;;;;;;;25.60;36.10;;;;;;5068586;28;19924;-57
2024/03/30 09:03:14;;;;;;;;;;;25.60;36.00;;;;;;5072484;28;19932;-58
2024/03/30 09:05:39;;;;;;;;;;;25.70;36.10;;;;;;5072310;28;19934;-57
2024/03/30 09:08:05;;;;;;;;;;;25.70;36.10;;;;;;5068145;28;20327;-57
2024/03/30 09:10:31;;;;;;;;;;;25.70;36.00;;;;;;5054924;28;20335;-58
2024/03/30 09:12:57;;;;;;;;;;;25.70;36.00;;;;;;5072631;28;19924;-57
2024/03/30 09:15:23;;;;;;;;;;;25.70;35.90;;;;;;5052072;28;20586;-58
2024/03/30 09:17:49;;;;;;;;;;;25.70;35.80;;;;;;5070197;28;19928;-58
2024/03/30 09:20:15;;;;;;;;;;;25.70;35.80;;;;;;5070737;28;19931;-60
2024/03/30 09:22:41;;;;;;;;;;;25.70;35.80;;;;;;5072087;28;19932;-57
2024/03/30 09:25:13;;;;;;;;;;;25.70;35.70;;;;;;5062768;28;19978;-57
2024/03/30 09:27:39;;;;;;;;;;;25.70;35.70;;;;;;5063850;28;19935;-57
2024/03/30 09:30:06;;;;;;;;;;;25.70;35.70;;;;;;5064910;28;19924;-57
2024/03/30 09:32:34;;;;;;;;;;;25.70;36.20;;;;;;5067663;28;19940;-57
2024/03/30 09:35:00;;;;;;;;;;;25.80;35.60;;;;;;5066744;28;19928;-58
2024/03/30 09:37:26;;;;;;;;;;;25.80;35.60;;;;;;5067685;28;19932;-57
2024/03/30 09:39:52;;;;;;;;;;;25.80;35.50;;;;;;5068328;28;19948;-57
2024/03/30 09:42:23;;;;;;;;;;;25.80;35.50;;;;;;5059237;28;19929;-57
2024/03/30 09:44:49;;;;;;;;;;;25.80;35.50;;;;;;5062782;28;20262;-57
2024/03/30 09:47:15;;;;;;;;;;;25.80;35.40;;;;;;5054685;28;19929;-58
2024/03/30 09:49:43;;;;;;;;;;;25.90;35.50;;;;;;5065497;28;19955;-57
2024/03/30 09:52:09;;;;;;;;;;;25.90;35.40;;;;;;5061831;28;19959;-57
2024/03/30 09:54:35;;;;;;;;;;;25.90;35.40;;;;;;5064310;28;19994;-57
2024/03/30 09:57:01;;;;;;;;;;;25.90;35.30;;;;;;5055242;28;20362;-57
2024/03/30 09:59:28;;;;;;;;;;;25.90;35.30;;;;;;5052562;28;19979;-57
2024/03/30 10:01:54;;;;;;;;;;;25.90;35.30;;;;;;5065744;28;19931;-58
2024/03/30 10:04:20;;;;;;;;;;;25.90;35.20;;;;;;5072213;28;19936;-57
2024/03/30 10:06:48;;;;;;;;;;;26.00;35.20;;;;;;5072334;28;19924;-57
2024/03/30 10:09:14;;;;;;;;;;;26.00;35.20;;;;;;5072301;28;20325;-57
2024/03/30 10:11:41;;;;;;;;;;;26.00;35.10;;;;;;5072237;28;19994;-57
2024/03/30 10:14:13;;;;;;;;;;;26.00;35.00;;;;;;5071997;28;19928;-57
2024/03/30 10:16:39;;;;;;;;;;;26.10;35.00;;;;;;5072342;28;19925;-57
2024/03/30 10:19:06;;;;;;;;;;;26.10;34.90;;;;;;5072447;28;19932;-57
2024/03/30 10:21:32;;;;;;;;;;;26.10;34.90;;;;;;5071802;28;19974;-57
2024/03/30 10:23:58;;;;;;;;;;;26.10;34.70;;;;;;5071983;28;19925;-57
2024/03/30 10:26:24;;;;;;;;;;;26.20;34.70;;;;;;5071968;28;19925;-57
2024/03/30 10:28:50;;;;;;;;;;;26.20;34.70;;;;;;5071972;28;19932;-58
2024/03/30 10:31:16;;;;;;;;;;;26.20;34.60;;;;;;5072260;28;20019;-57
2024/03/30 10:33:42;;;;;;;;;;;26.30;34.60;;;;;;5072362;28;20317;-57
2024/03/30 10:36:11;;;;;;;;;;;26.30;34.50;;;;;;5072036;28;19932;-57
2024/03/30 10:38:37;;;;;;;;;;;26.30;34.50;;;;;;5072007;28;19932;-57
2024/03/30 10:41:05;;;;;;;;;;;26.30;34.40;;;;;;5071787;28;19932;-58
2024/03/30 10:43:31;;;;;;;;;;;26.30;34.90;;;;;;5071724;28;19979;-57
2024/03/30 10:45:56;;;;;;;;;;;26.30;34.30;;;;;;5071584;28;19928;-57
2024/03/30 10:48:22;;;;;;;;;;;26.40;34.40;;;;;;5072101;28;19932;-57
2024/03/30 10:50:48;;;;;;;;;;;26.30;34.30;;;;;;5071570;28;19924;-57
2024/03/30 10:53:14;;;;;;;;;;;26.40;34.30;;;;;;5055266;28;20431;-57
2024/03/30 10:55:40;;;;;;;;;;;26.40;34.20;;;;;;5072003;28;19928;-57
2024/03/30 10:58:06;;;;;;;;;;;26.40;34.20;;;;;;5071854;28;19924;-57
2024/03/30 11:00:33;;;;;;;;;;;26.40;34.20;;;;;;5071600;28;19928;-58
2024/03/30 11:02:59;;;;;;;;;;;26.40;34.10;;;;;;5071680;28;20274;-57
2024/03/30 11:05:28;;;;;;;;;;;26.40;34.10;;;;;;5071416;28;19925;-58
2024/03/30 11:07:54;;;;;;;;;;;26.40;34.10;;;;;;5071962;28;19924;-57
2024/03/30 11:10:21;;;;;;;;;;;26.50;34.10;;;;;;5071567;28;19928;-57
2024/03/30 11:12:47;;;;;;;;;;;26.50;34.10;;;;;;5071756;28;19924;-57
2024/03/30 11:15:13;;;;;;;;;;;26.50;34.10;;;;;;5071083;28;19928;-57
2024/03/30 11:17:44;;;;;;;;;;;26.50;34.00;;;;;;5071789;28;19928;-57
2024/03/30 11:20:22;;;;;;;;;;;26.50;34.00;;;;;;5071254;28;20396;-57
2024/03/30 11:22:52;;;;;;;;;;;26.50;34.00;;;;;;5073838;28;19925;-57
2024/03/30 11:25:22;;;;;;;;;;;26.60;34.00;;;;;;5075282;28;20289;-57
2024/03/30 11:27:58;;;;;;;;;;;26.50;33.90;;;;;;5075085;28;19925;-57
2024/03/30 11:30:29;;;;;;;;;;;26.60;33.90;;;;;;5074943;28;19925;-57
2024/03/30 11:33:00;;;;;;;;;;;26.60;33.90;;;;;;5075229;28;19948;-57
2024/03/30 11:35:31;;;;;;;;;;;26.60;33.80;;;;;;5074848;28;19924;-57
2024/03/30 11:38:02;;;;;;;;;;;26.60;33.80;;;;;;5072198;28;19947;-57
2024/03/30 11:40:30;;;;;;;;;;;26.60;33.80;;;;;;5075133;28;19924;-57
2024/03/30 11:43:16;;;;;;;;;;;26.60;33.80;;;;;;5074748;28;19924;-57
2024/03/30 11:45:43;;;;;;;;;;;26.60;34.30;;;;;;5074740;28;19928;-57
2024/03/30 11:48:10;;;;;;;;;;;26.60;33.80;;;;;;5074998;28;19931;-57
2024/03/30 11:50:36;;;;;;;;;;;26.60;33.80;;;;;;5074723;28;20274;-57
2024/03/30 11:53:02;;;;;;;;;;;26.60;33.70;;;;;;5074660;28;19924;-57
2024/03/30 11:55:31;;;;;;;;;;;26.60;33.70;;;;;;5074539;28;20011;-57
2024/03/30 11:58:00;;;;;;;;;;;26.60;33.70;;;;;;5074574;28;19970;-57
2024/03/30 12:00:29;;;;;;;;;;;26.60;33.70;;;;;;5074644;28;19924;-57
2024/03/30 12:02:59;;;;;;;;;;;26.60;33.70;;;;;;5074335;28;19924;-57
2024/03/30 12:05:29;;;;;;;;;;;26.60;33.70;;;;;;5074615;28;19925;-57
2024/03/30 12:07:58;;;;;;;;;;;26.60;33.70;;;;;;5057010;28;19928;-57
2024/03/30 12:10:24;;;;;;;;;;;26.60;33.70;;;;;;5054127;28;19925;-57
2024/03/30 12:12:58;;;;;;;;;;;26.60;33.70;;;;;;5054291;28;19925;-57
2024/03/30 12:15:25;;;;;;;;;;;26.60;33.70;;;;;;5054022;28;19931;-57
2024/03/30 12:17:51;;;;;;;;;;;26.50;33.70;;;;;;5054196;28;20429;-57
2024/03/30 12:20:18;;;;;;;;;;;26.50;33.70;;;;;;5053982;28;19924;-57
2024/03/30 12:22:44;;;;;;;;;;;26.50;33.70;;;;;;5054137;28;19925;-57
2024/03/30 12:25:10;;;;;;;;;;;26.60;33.70;;;;;;5054086;28;19940;-59
2024/03/30 12:27:35;;;;;;;;;;;26.50;33.70;;;;;;5054206;28;20024;-60
2024/03/30 12:30:04;;;;;;;;;;;26.50;33.60;;;;;;5053753;28;19932;-60
2024/03/30 12:32:30;;;;;;;;;;;26.50;33.60;;;;;;5054170;28;19947;-59
2024/03/30 12:34:58;;;;;;;;;;;26.60;33.70;;;;;;5053829;28;20303;-57
2024/03/30 12:37:24;;;;;;;;;;;26.50;33.50;;;;;;5053970;28;19987;-57
2024/03/30 12:39:50;;;;;;;;;;;26.60;33.60;;;;;;5054076;28;20290;-57
2024/03/30 12:42:18;;;;;;;;;;;26.60;33.60;;;;;;5053829;28;19925;-56
2024/03/30 12:44:44;;;;;;;;;;;26.60;33.50;;;;;;5053693;28;19952;-57
2024/03/30 12:47:11;;;;;;;;;;;26.60;33.50;;;;;;5053582;28;19925;-57
2024/03/30 12:49:37;;;;;;;;;;;26.60;33.50;;;;;;5053413;28;20368;-57
2024/03/30 12:52:03;;;;;;;;;;;26.60;33.50;;;;;;5053368;28;19928;-57
2024/03/30 12:54:29;;;;;;;;;;;26.60;33.50;;;;;;5053964;28;20266;-57
2024/03/30 12:56:55;;;;;;;;;;;26.60;33.50;;;;;;5053315;28;19925;-57
2024/03/30 12:59:22;;;;;;;;;;;26.60;33.50;;;;;;5053294;28;19925;-57
2024/03/30 13:01:48;;;;;;;;;;;26.60;33.50;;;;;;5053171;28;19925;-57
2024/03/30 13:04:13;;;;;;;;;;;26.60;33.50;;;;;;5053568;28;19931;-57
2024/03/30 13:06:41;;;;;;;;;;;26.60;33.50;;;;;;5052747;28;20306;-57
2024/03/30 13:09:17;;;;;;;;;;;26.60;33.50;;;;;;5052944;28;19925;-57
2024/03/30 13:11:42;;;;;;;;;;;26.60;33.50;;;;;;5053358;28;19939;-57
2024/03/30 13:14:08;;;;;;;;;;;26.60;33.50;;;;;;5052963;28;19925;-57
2024/03/30 13:16:34;;;;;;;;;;;26.60;33.40;;;;;;5052959;28;19925;-57
2024/03/30 13:19:00;;;;;;;;;;;26.60;33.40;;;;;;5036742;28;19931;-57
2024/03/30 13:21:26;;;;;;;;;;;26.60;33.40;;;;;;5052714;28;20332;-57
2024/03/30 13:23:52;;;;;;;;;;;26.60;33.40;;;;;;5053038;28;19960;-57
2024/03/30 13:26:17;;;;;;;;;;;26.60;33.40;;;;;;5036123;28;19924;-57
2024/03/30 13:28:43;;;;;;;;;;;26.60;33.40;;;;;;5052841;28;19932;-57
2024/03/30 13:31:09;;;;;;;;;;;26.60;33.40;;;;;;5052848;28;19950;-61
2024/03/30 13:33:35;;;;;;;;;;;26.60;33.40;;;;;;5052704;28;19925;-57
2024/03/30 13:36:01;;;;;;;;;;;26.60;33.40;;;;;;5052465;28;19932;-57
2024/03/30 13:38:27;;;;;;;;;;;26.60;33.40;;;;;;5053021;28;20290;-61
2024/03/30 13:40:53;;;;;;;;;;;26.60;33.40;;;;;;5052398;28;20400;-66
2024/03/30 13:43:19;;;;;;;;;;;26.60;33.40;;;;;;5036382;28;19925;-60
2024/03/30 13:45:45;;;;;;;;;;;26.60;33.40;;;;;;5071233;28;19931;-59
2024/03/30 13:48:11;;;;;;;;;;;26.60;33.30;;;;;;5052738;28;19925;-62
2024/03/30 13:50:37;;;;;;;;;;;26.60;33.30;;;;;;5052963;28;19932;-58
2024/03/30 13:53:02;;;;;;;;;;;26.60;33.30;;;;;;5052506;28;20433;-62
2024/03/30 13:55:30;;;;;;;;;;;26.60;33.30;;;;;;5052264;28;19925;-61
2024/03/30 13:57:56;;;;;;;;;;;26.60;33.20;;;;;;5052756;28;19925;-60
2024/03/30 14:00:22;;;;;;;;;;;26.60;33.20;;;;;;5052446;28;19956;-64
2024/03/30 14:02:49;;;;;;;;;;;26.60;33.20;;;;;;5052054;28;19928;-57
2024/03/30 14:05:15;;;;;;;;;;;26.60;33.70;;;;;;5052261;28;19931;-58
2024/03/30 14:07:40;;;;;;;;;;;26.60;33.20;;;;;;5052383;28;19928;-57
2024/03/30 14:10:07;;;;;;;;;;;26.60;33.20;;;;;;5072124;28;20385;-58
2024/03/30 14:12:33;;;;;;;;;;;26.60;33.10;;;;;;5072569;28;19928;-57
2024/03/30 14:15:01;;;;;;;;;;;26.60;33.10;;;;;;5072296;28;20386;-58